Gulnare, Kentucky
Current Conditions -  °F | °C
As of 8:35 PM on Sunday 23 Nov 2014 (Local Time) from KPBX Reporting Station
Broken Clouds Broken Clouds  
Wind Chill: 57°   Ceiling: 11000
Heat Index: 57°   Visibility: 10mi
Dew Point: 53°   Wind: 14mph
Humidity: 86%   Direction: 150°SSE
Pressure: 29.53"   Gusts: 28mph
Location:  37.5348°N, 82.513°W
Report Text: KPBX 240135Z AUTO 15012G24KT 10SM SCT060 SCT080 BKN110 14/12 A2953 RMK AO2 T01380115
Loading
Personal Weather Stations






























Interactive Weather Map New forecast layout! Learn more

10-Day Weather Forecast

Advertisements
Track Severe Weather on mobile